createdAt,value
2018-06-12T00:02:34.140Z,90.48
2018-06-12T00:05:07.596Z,91.11
2018-06-12T00:07:45.288Z,92.80
2018-06-12T00:10:19.879Z,93.23
2018-06-12T00:12:53.309Z,93.59
2018-06-12T00:15:27.006Z,93.94
2018-06-12T00:18:00.977Z,94.55
2018-06-12T00:20:34.287Z,94.93
2018-06-12T00:23:08.987Z,95.30
2018-06-12T00:25:50.729Z,95.57
2018-06-12T00:28:25.692Z,94.97
2018-06-12T00:31:01.189Z,95.25
2018-06-12T00:33:43.655Z,94.29
2018-06-12T00:36:17.383Z,94.66
2018-06-12T00:38:51.434Z,94.60
2018-06-12T00:41:29.244Z,93.53
2018-06-12T00:44:03.849Z,93.03
2018-06-12T00:46:38.348Z,92.25
2018-06-12T00:49:12.737Z,91.70
2018-06-12T00:51:46.793Z,92.09
2018-06-12T00:54:24.149Z,92.37
2018-06-12T00:57:03.090Z,92.24
2018-06-12T00:59:37.883Z,92.35
2018-06-12T01:02:12.245Z,92.02
2018-06-12T01:04:46.268Z,91.50
2018-06-12T01:07:19.653Z,91.74
2018-06-12T01:09:53.234Z,91.82
2018-06-12T01:12:26.655Z,90.88
2018-06-12T01:15:01.929Z,91.28
2018-06-12T01:17:35.305Z,90.60
2018-06-12T01:20:09.943Z,91.56
2018-06-12T01:22:43.340Z,92.76
2018-06-12T01:25:23.574Z,93.95
2018-06-12T01:27:57.061Z,95.02
2018-06-12T01:30:31.255Z,95.63
2018-06-12T01:33:04.598Z,95.96
2018-06-12T01:35:38.179Z,96.22
2018-06-12T01:38:12.319Z,95.77
2018-06-12T01:40:45.738Z,95.40
2018-06-12T01:43:20.483Z,95.07
2018-06-12T01:45:53.904Z,94.58
2018-06-12T01:48:28.745Z,93.36
2018-06-12T01:51:03.357Z,92.45
2018-06-12T01:53:37.111Z,92.16
2018-06-12T01:56:10.983Z,92.83
2018-06-12T01:58:44.306Z,93.30
2018-06-12T02:01:18.211Z,92.87
2018-06-12T02:03:52.477Z,93.78
2018-06-12T02:06:25.784Z,92.64
2018-06-12T02:08:59.770Z,92.35
2018-06-12T02:11:33.348Z,91.53
2018-06-12T02:14:06.947Z,92.19
2018-06-12T02:16:40.852Z,91.75
2018-06-12T02:19:14.485Z,91.84
2018-06-12T02:21:47.940Z,92.22
2018-06-12T02:24:22.269Z,91.74
2018-06-12T02:26:55.726Z,92.12
2018-06-12T02:29:29.143Z,91.45
2018-06-12T02:32:02.630Z,91.41
2018-06-12T02:34:35.915Z,91.39
2018-06-12T02:37:09.881Z,91.93
2018-06-12T02:39:43.278Z,91.67
2018-06-12T02:42:16.661Z,90.62
2018-06-12T02:44:49.999Z,91.50
2018-06-12T02:47:23.592Z,91.21
2018-06-12T02:49:57.149Z,90.66
2018-06-12T02:52:31.196Z,91.47
2018-06-12T02:55:05.118Z,92.16
2018-06-12T02:57:38.575Z,91.23
2018-06-12T03:00:12.024Z,91.34
2018-06-12T03:02:46.020Z,92.67
2018-06-12T03:05:19.407Z,94.05
2018-06-12T03:07:53.801Z,93.73
2018-06-12T03:10:28.710Z,93.48
2018-06-12T03:13:02.737Z,92.89
2018-06-12T03:15:36.687Z,92.18
2018-06-12T03:18:10.768Z,92.75
2018-06-12T03:20:45.080Z,92.36
2018-06-12T03:23:18.994Z,90.96
2018-06-12T03:25:56.761Z,91.04
2018-06-12T03:28:30.928Z,90.30
2018-06-12T03:31:04.328Z,89.69
2018-06-12T03:33:37.753Z,90.27
2018-06-12T03:36:12.193Z,89.33
2018-06-12T03:38:52.797Z,88.91
2018-06-12T03:41:32.568Z,88.32
2018-06-12T03:44:06.349Z,88.62
2018-06-12T03:46:40.105Z,88.25
2018-06-12T03:49:13.652Z,87.67
2018-06-12T03:51:47.114Z,87.93
2018-06-12T03:54:20.652Z,87.62
2018-06-12T03:56:54.118Z,87.45
2018-06-12T03:59:27.490Z,87.04
2018-06-12T04:02:01.252Z,86.28
2018-06-12T04:04:35.214Z,87.08
2018-06-12T04:07:08.940Z,86.97
2018-06-12T04:09:42.776Z,86.30
2018-06-12T04:12:16.247Z,85.97
2018-06-12T04:14:50.676Z,85.68
2018-06-12T04:17:24.156Z,85.04
2018-06-12T04:20:03.801Z,84.61
2018-06-12T04:22:38.701Z,86.90
2018-06-12T04:25:12.776Z,85.98
2018-06-12T04:27:46.085Z,85.59
2018-06-12T04:30:19.665Z,85.24
2018-06-12T04:32:53.612Z,82.83
2018-06-12T04:35:27.054Z,82.42
2018-06-12T04:38:00.647Z,82.48
2018-06-12T04:40:34.289Z,82.24
2018-06-12T04:43:07.859Z,81.92
2018-06-12T04:45:41.106Z,81.85
2018-06-12T04:48:14.521Z,81.30
2018-06-12T04:50:48.344Z,82.79
2018-06-12T04:53:21.718Z,80.59
2018-06-12T04:55:55.101Z,82.08
2018-06-12T04:58:28.598Z,82.19
2018-06-12T05:01:02.281Z,82.09
2018-06-12T05:03:35.633Z,81.50
2018-06-12T05:06:09.336Z,81.86
2018-06-12T05:08:43.374Z,82.90
2018-06-12T05:11:16.986Z,83.06
2018-06-12T05:13:51.437Z,81.86
2018-06-12T05:16:25.159Z,81.16
2018-06-12T05:18:58.535Z,80.03
2018-06-12T05:21:32.474Z,79.09
2018-06-12T05:24:05.871Z,79.29
2018-06-12T05:26:42.551Z,78.48
2018-06-12T05:29:15.986Z,77.46
2018-06-12T05:31:49.252Z,78.17
2018-06-12T05:34:22.726Z,78.31
2018-06-12T05:36:57.857Z,76.28
2018-06-12T05:39:31.614Z,77.44
2018-06-12T05:42:05.263Z,76.93
2018-06-12T05:44:38.948Z,75.27
2018-06-12T05:47:12.469Z,72.39
2018-06-12T05:49:45.855Z,69.52
2018-06-12T05:52:19.682Z,69.12
2018-06-12T05:54:53.164Z,68.77
2018-06-12T05:57:26.437Z,67.96
2018-06-12T06:00:00.326Z,68.80
2018-06-12T06:02:34.186Z,69.13
2018-06-12T06:05:07.664Z,67.84
2018-06-12T06:07:41.246Z,68.18
2018-06-12T06:10:14.625Z,67.33
2018-06-12T06:12:48.113Z,67.04
2018-06-12T06:15:21.853Z,66.12
2018-06-12T06:17:55.284Z,65.74
2018-06-12T06:20:28.947Z,63.15
2018-06-12T06:23:02.325Z,62.56
2018-06-12T06:25:36.436Z,60.36
2018-06-12T06:28:11.017Z,60.61
2018-06-12T06:30:45.641Z,59.88
2018-06-12T06:33:19.760Z,59.41
2018-06-12T06:35:54.322Z,57.89
2018-06-12T06:38:28.469Z,59.06
2018-06-12T06:41:03.394Z,55.26
2018-06-12T06:43:37.731Z,52.83
2018-06-12T06:46:12.482Z,50.77
2018-06-12T06:48:46.571Z,54.56
2018-06-12T06:51:21.525Z,54.75
2018-06-12T06:53:55.677Z,56.42
2018-06-12T06:56:29.859Z,56.11
2018-06-12T06:59:04.110Z,51.90
2018-06-12T07:01:39.071Z,51.77
2018-06-12T07:04:13.461Z,52.45
2018-06-12T07:06:48.115Z,52.33
2018-06-12T07:09:22.615Z,53.99
2018-06-12T07:11:56.856Z,52.61
2018-06-12T07:14:31.366Z,53.71
2018-06-12T07:17:05.639Z,51.62
2018-06-12T07:19:39.752Z,50.86
2018-06-12T07:22:14.113Z,48.30
2018-06-12T07:24:48.225Z,50.00
2018-06-12T07:27:22.480Z,51.79
2018-06-12T07:29:56.622Z,50.84
2018-06-12T07:32:31.222Z,51.04
2018-06-12T07:35:05.531Z,52.24
2018-06-12T07:37:39.618Z,51.60
2018-06-12T07:40:13.729Z,48.98
2018-06-12T07:42:47.845Z,49.17
2018-06-12T07:45:22.481Z,51.58
2018-06-12T07:47:57.111Z,49.87
2018-06-12T07:50:31.280Z,50.25
2018-06-12T07:53:06.889Z,49.92
2018-06-12T07:55:41.073Z,51.37
2018-06-12T07:58:15.744Z,50.33
2018-06-12T08:00:49.898Z,49.14
2018-06-12T08:03:25.022Z,49.14
2018-06-12T08:05:59.388Z,46.78
2018-06-12T08:08:33.830Z,47.60
2018-06-12T08:11:08.475Z,47.11
2018-06-12T08:13:42.656Z,47.58
2018-06-12T08:16:16.894Z,46.41
2018-06-12T08:18:52.044Z,48.67
2018-06-12T08:21:26.592Z,47.50
2018-06-12T08:24:00.929Z,48.21
2018-06-12T08:26:35.149Z,46.31
2018-06-12T08:29:09.415Z,46.33
2018-06-12T08:31:44.706Z,45.82
2018-06-12T08:34:19.197Z,44.40
2018-06-12T08:36:53.737Z,44.58
2018-06-12T08:39:28.087Z,45.86
2018-06-12T08:42:02.656Z,44.36
2018-06-12T08:44:37.165Z,46.28
2018-06-12T08:47:12.010Z,49.03
2018-06-12T08:49:51.627Z,44.98
2018-06-12T08:52:26.800Z,45.01
2018-06-12T08:55:01.291Z,45.30
2018-06-12T08:57:35.543Z,47.49
2018-06-12T09:00:09.804Z,44.88
2018-06-12T09:02:44.083Z,45.01
2018-06-12T09:05:18.842Z,47.11
2018-06-12T09:07:53.897Z,46.34
2018-06-12T09:10:28.934Z,45.00
2018-06-12T09:13:03.142Z,47.30
2018-06-12T09:15:37.801Z,46.50
2018-06-12T09:18:12.563Z,45.42
2018-06-12T09:20:47.497Z,45.50
2018-06-12T09:23:22.176Z,45.45
2018-06-12T09:25:57.237Z,44.38
2018-06-12T09:28:31.400Z,45.06
2018-06-12T09:31:05.862Z,44.58
2018-06-12T09:33:40.296Z,44.66
2018-06-12T09:36:20.101Z,43.87
2018-06-12T09:38:54.255Z,44.14
2018-06-12T09:41:28.379Z,43.06
2018-06-12T09:44:04.275Z,41.87
2018-06-12T09:46:38.434Z,40.06
2018-06-12T09:49:12.632Z,38.77
2018-06-12T09:51:47.746Z,38.20
2018-06-12T09:54:22.852Z,38.08
2018-06-12T09:56:57.159Z,39.07
2018-06-12T09:59:32.375Z,40.86
2018-06-12T10:02:06.552Z,39.55
2018-06-12T10:04:42.032Z,39.61
2018-06-12T10:07:16.222Z,38.32
2018-06-12T10:09:51.837Z,38.82
2018-06-12T10:12:25.928Z,38.98
2018-06-12T10:15:00.507Z,36.36
2018-06-12T10:17:35.093Z,35.97
2018-06-12T10:20:09.300Z,35.63
2018-06-12T10:22:43.423Z,36.53
2018-06-12T10:25:18.065Z,37.88
2018-06-12T10:27:53.083Z,35.49
2018-06-12T10:30:27.385Z,34.21
2018-06-12T10:33:02.543Z,35.32
2018-06-12T10:35:37.089Z,36.91
2018-06-12T10:38:11.389Z,35.23
2018-06-12T10:40:46.837Z,36.06
2018-06-12T10:43:21.058Z,37.13
2018-06-12T10:45:55.342Z,34.65
2018-06-12T10:48:29.848Z,34.62
2018-06-12T10:51:04.629Z,33.83
2018-06-12T10:53:38.834Z,32.48
2018-06-12T10:56:13.047Z,31.02
2018-06-12T10:58:47.294Z,34.27
2018-06-12T11:01:22.607Z,36.51
2018-06-12T11:03:56.983Z,38.31
2018-06-12T11:06:39.726Z,37.40
2018-06-12T11:09:14.626Z,36.40
2018-06-12T11:11:49.091Z,38.81
2018-06-12T11:14:24.293Z,37.26
2018-06-12T11:16:58.519Z,37.35
2018-06-12T11:19:32.663Z,37.96
2018-06-12T11:22:06.989Z,37.25
2018-06-12T11:24:41.388Z,37.76
2018-06-12T11:27:16.669Z,39.72
2018-06-12T11:29:51.138Z,38.63
2018-06-12T11:32:25.412Z,36.61
2018-06-12T11:35:00.835Z,35.16
2018-06-12T11:37:35.185Z,33.33
2018-06-12T11:40:09.295Z,33.04
2018-06-12T11:42:43.593Z,33.08
2018-06-12T11:45:18.859Z,28.23
2018-06-12T11:47:53.253Z,28.83
2018-06-12T11:50:27.754Z,29.80
2018-06-12T11:53:03.097Z,30.57
2018-06-12T11:55:37.693Z,31.42
2018-06-12T11:58:11.867Z,31.74
2018-06-12T12:00:46.920Z,31.09
2018-06-12T12:03:23.282Z,31.18
2018-06-12T12:05:57.766Z,32.20
2018-06-12T12:08:31.980Z,31.23
2018-06-12T12:11:07.030Z,32.51
2018-06-12T12:13:41.817Z,32.21
2018-06-12T12:16:16.892Z,28.58
2018-06-12T12:18:51.339Z,32.67
2018-06-12T12:21:25.464Z,30.69
2018-06-12T12:24:00.410Z,33.58
2018-06-12T12:26:35.006Z,36.90
2018-06-12T12:29:09.066Z,42.00
2018-06-12T12:31:43.669Z,44.69
2018-06-12T12:34:12.294Z,61.44
2018-06-12T12:36:41.458Z,58.23
2018-06-12T12:39:09.585Z,59.76
2018-06-12T12:41:38.661Z,63.73
2018-06-12T12:44:07.320Z,64.38
2018-06-12T12:46:35.497Z,65.37
2018-06-12T12:49:03.654Z,66.40
2018-06-12T12:51:31.730Z,70.45
2018-06-12T12:54:00.214Z,69.86
2018-06-12T12:56:28.379Z,71.12
2018-06-12T12:58:56.431Z,70.61
2018-06-12T13:01:24.752Z,71.29
2018-06-12T13:03:52.891Z,70.89
2018-06-12T13:06:21.002Z,69.64
2018-06-12T13:08:49.096Z,72.31
2018-06-12T13:11:17.230Z,73.84
2018-06-12T13:13:45.302Z,74.55
2018-06-12T13:16:13.452Z,75.60
2018-06-12T13:18:41.847Z,76.61
2018-06-12T13:21:11.580Z,78.30
2018-06-12T13:23:40.486Z,78.40
2018-06-12T13:26:08.843Z,78.40
2018-06-12T13:28:36.997Z,78.54
2018-06-12T13:31:05.134Z,77.93
2018-06-12T13:33:34.875Z,76.85
2018-06-12T13:36:03.277Z,77.20
2018-06-12T13:38:32.425Z,76.94
2018-06-12T13:41:01.943Z,77.83
2018-06-12T13:43:30.041Z,77.80
2018-06-12T13:45:58.161Z,75.94
2018-06-12T13:48:26.623Z,76.85
2018-06-12T13:50:56.200Z,76.18
2018-06-12T13:53:25.127Z,77.19
2018-06-12T13:55:53.383Z,76.71
2018-06-12T13:58:21.532Z,76.89
2018-06-12T14:00:49.690Z,76.98
2018-06-12T14:03:17.947Z,76.25
2018-06-12T14:05:46.062Z,75.01
2018-06-12T14:08:14.797Z,74.91
2018-06-12T14:10:42.966Z,73.80
2018-06-12T14:13:11.004Z,74.33
2018-06-12T14:15:39.043Z,74.43
2018-06-12T14:18:07.753Z,74.46
2018-06-12T14:20:36.307Z,75.46
2018-06-12T14:23:04.417Z,73.68
2018-06-12T14:25:32.962Z,75.46
2018-06-12T14:28:01.065Z,72.19
2018-06-12T14:30:29.133Z,71.96
2018-06-12T14:32:58.341Z,71.81
2018-06-12T14:35:26.468Z,74.51
2018-06-12T14:37:54.614Z,75.88
2018-06-12T14:40:23.522Z,75.33
2018-06-12T14:42:51.977Z,75.53
2018-06-12T14:45:20.163Z,72.82
2018-06-12T14:47:48.918Z,74.99
2018-06-12T14:50:17.191Z,75.82
2018-06-12T14:52:45.280Z,76.45
2018-06-12T14:55:13.669Z,78.15
2018-06-12T14:57:41.991Z,78.32
2018-06-12T15:00:10.594Z,78.29
2018-06-12T15:02:39.881Z,78.85
2018-06-12T15:05:08.564Z,78.56
2018-06-12T15:07:36.873Z,74.41
2018-06-12T15:10:06.099Z,77.23
2018-06-12T15:12:34.227Z,81.15
2018-06-12T15:15:02.401Z,80.96
2018-06-12T15:17:30.994Z,81.22
2018-06-12T15:19:59.507Z,81.52
2018-06-12T15:22:27.995Z,81.04
2018-06-12T15:24:57.129Z,80.72
2018-06-12T15:27:25.730Z,81.74
2018-06-12T15:29:53.919Z,82.05
2018-06-12T15:32:22.396Z,82.02
2018-06-12T15:34:54.712Z,82.66
2018-06-12T15:37:23.837Z,83.43
2018-06-12T15:39:52.001Z,83.26
2018-06-12T15:42:20.110Z,83.45
2018-06-12T15:44:48.516Z,84.72
2018-06-12T15:47:16.642Z,85.05
2018-06-12T15:49:45.738Z,85.07
2018-06-12T15:52:14.077Z,85.49
2018-06-12T15:54:42.167Z,84.81
2018-06-12T15:57:11.045Z,84.35
2018-06-12T15:59:39.277Z,83.38
2018-06-12T16:02:08.501Z,83.66
2018-06-12T16:04:37.210Z,83.54
2018-06-12T16:07:05.344Z,83.40
2018-06-12T16:09:34.218Z,82.77
2018-06-12T16:12:02.990Z,83.16
2018-06-12T16:14:31.251Z,83.06
2018-06-12T16:17:00.431Z,83.71
2018-06-12T16:19:29.490Z,83.69
2018-06-12T16:21:57.694Z,84.03
2018-06-12T16:24:25.843Z,83.89
2018-06-12T16:26:54.967Z,83.72
2018-06-12T16:29:23.934Z,83.15
2018-06-12T16:31:52.764Z,82.47
2018-06-12T16:34:21.109Z,83.84
2018-06-12T16:36:49.478Z,83.37
2018-06-12T16:39:17.860Z,84.23
2018-06-12T16:41:48.183Z,84.40
2018-06-12T16:44:16.568Z,83.91
2018-06-12T16:46:46.360Z,83.95
2018-06-12T16:49:14.548Z,84.84
2018-06-12T16:51:44.190Z,84.56
2018-06-12T16:54:13.562Z,85.26
2018-06-12T16:56:41.880Z,85.57
2018-06-12T16:59:10.083Z,85.07
2018-06-12T17:01:38.521Z,85.48
2018-06-12T17:04:06.841Z,84.98
2018-06-12T17:06:34.946Z,85.35
2018-06-12T17:09:06.304Z,85.61
2018-06-12T17:11:34.745Z,85.34
2018-06-12T17:14:02.990Z,85.51
2018-06-12T17:16:31.775Z,85.99
2018-06-12T17:19:02.816Z,85.34
2018-06-12T17:21:31.001Z,85.62
2018-06-12T17:23:59.152Z,86.53
2018-06-12T17:26:27.932Z,85.61
2018-06-12T17:28:56.299Z,85.29
2018-06-12T17:31:24.581Z,85.77
2018-06-12T17:33:52.662Z,85.38
2018-06-12T17:36:21.279Z,84.97
2018-06-12T17:38:50.453Z,86.17
2018-06-12T17:41:18.586Z,85.60
2018-06-12T17:43:46.943Z,86.33
2018-06-12T17:46:15.233Z,85.79
2018-06-12T17:48:43.347Z,87.21
2018-06-12T17:51:11.462Z,88.59
2018-06-12T17:53:40.876Z,88.30
2018-06-12T17:56:08.977Z,88.89
2018-06-12T17:58:37.205Z,88.68
2018-06-12T18:01:06.147Z,89.02
2018-06-12T18:03:34.505Z,88.45
2018-06-12T18:06:02.745Z,88.81
2018-06-12T18:08:31.576Z,88.42
2018-06-12T18:10:59.815Z,89.13
2018-06-12T18:13:28.028Z,91.13
2018-06-12T18:15:56.291Z,89.92
2018-06-12T18:18:24.693Z,89.13
2018-06-12T18:20:56.264Z,89.72
2018-06-12T18:23:24.630Z,91.34
2018-06-12T18:25:52.776Z,92.18
2018-06-12T18:28:21.451Z,92.30
2018-06-12T18:30:49.548Z,91.77
2018-06-12T18:33:18.364Z,91.62
2018-06-12T18:35:46.544Z,90.87
2018-06-12T18:38:16.135Z,91.58
2018-06-12T18:40:44.797Z,91.89
2018-06-12T18:43:13.685Z,90.24
2018-06-12T18:45:45.794Z,90.03
2018-06-12T18:48:17.722Z,89.29
2018-06-12T18:50:46.956Z,89.33
2018-06-12T18:53:15.375Z,90.08
2018-06-12T18:55:43.785Z,90.13
2018-06-12T18:58:12.524Z,91.24
2018-06-12T19:00:40.781Z,91.92
2018-06-12T19:03:09.336Z,92.09
2018-06-12T19:05:37.609Z,91.44
2018-06-12T19:08:06.434Z,90.69
2018-06-12T19:10:35.620Z,91.03
2018-06-12T19:13:05.112Z,91.17
2018-06-12T19:15:46.513Z,90.94
2018-06-12T19:18:15.222Z,91.82
2018-06-12T19:20:44.118Z,91.78
2018-06-12T19:23:13.257Z,91.48
2018-06-12T19:25:46.306Z,90.94
2018-06-12T19:28:16.483Z,90.76
2018-06-12T19:30:44.603Z,90.59
2018-06-12T19:33:13.438Z,90.42
2018-06-12T19:35:42.645Z,90.80
2018-06-12T19:38:11.294Z,90.60
2018-06-12T19:40:39.403Z,90.67
2018-06-12T19:43:09.307Z,91.11
2018-06-12T19:45:37.985Z,91.03
2018-06-12T19:48:09.976Z,90.41
2018-06-12T19:50:40.482Z,91.97
2018-06-12T19:53:10.444Z,91.55
2018-06-12T19:55:39.130Z,91.10
2018-06-12T19:58:08.295Z,91.33
2018-06-12T20:00:43.016Z,91.72
2018-06-12T20:03:19.599Z,92.06
2018-06-12T20:05:57.042Z,92.07
2018-06-12T20:08:38.689Z,91.26
2018-06-12T20:11:13.562Z,91.71
2018-06-12T20:13:49.087Z,91.83
2018-06-12T20:16:25.732Z,91.77
2018-06-12T20:18:59.874Z,91.63
2018-06-12T20:21:34.629Z,92.12
2018-06-12T20:24:08.985Z,91.45
2018-06-12T20:26:43.686Z,92.01
2018-06-12T20:29:18.322Z,92.28
2018-06-12T20:31:52.522Z,92.91
2018-06-12T20:34:28.896Z,92.46
2018-06-12T20:37:05.460Z,92.67
2018-06-12T20:39:40.367Z,93.29
2018-06-12T20:42:15.200Z,93.04
2018-06-12T20:44:49.410Z,92.36
2018-06-12T20:47:23.538Z,92.90
2018-06-12T20:49:58.183Z,92.50
2018-06-12T20:52:32.657Z,93.22
2018-06-12T20:55:07.928Z,93.36
2018-06-12T20:57:43.131Z,93.91
2018-06-12T21:00:17.480Z,94.22
2018-06-12T21:02:51.940Z,93.37
2018-06-12T21:05:26.563Z,94.26
2018-06-12T21:08:01.056Z,94.91
2018-06-12T21:10:36.359Z,95.80
2018-06-12T21:13:10.496Z,96.14
2018-06-12T21:15:44.778Z,94.51
2018-06-12T21:18:19.370Z,91.89
2018-06-12T21:20:54.002Z,91.87
2018-06-12T21:23:28.315Z,91.18
2018-06-12T21:26:03.098Z,90.35
2018-06-12T21:28:37.419Z,91.12
2018-06-12T21:31:11.769Z,89.26
2018-06-12T21:33:46.477Z,90.49
2018-06-12T21:36:20.576Z,89.14
2018-06-12T21:38:54.795Z,91.40
2018-06-12T21:41:29.540Z,92.16
2018-06-12T21:44:03.737Z,89.39
2018-06-12T21:46:44.552Z,85.99
2018-06-12T21:49:18.907Z,85.57
2018-06-12T21:51:53.127Z,85.70
2018-06-12T21:54:27.283Z,87.38
2018-06-12T21:57:01.991Z,87.33
2018-06-12T21:59:36.785Z,88.06
2018-06-12T22:02:11.702Z,89.37
2018-06-12T22:04:46.040Z,88.53
2018-06-12T22:07:20.306Z,89.28
2018-06-12T22:09:55.229Z,88.98
2018-06-12T22:12:29.998Z,88.45
2018-06-12T22:15:04.912Z,88.04
2018-06-12T22:17:47.874Z,87.43
2018-06-12T22:20:22.488Z,87.81
2018-06-12T22:22:56.736Z,88.28
2018-06-12T22:25:31.119Z,88.24
2018-06-12T22:28:05.631Z,88.44
2018-06-12T22:30:39.964Z,88.11
2018-06-12T22:33:14.174Z,87.32
2018-06-12T22:35:48.218Z,86.70
2018-06-12T22:38:22.827Z,87.21
2018-06-12T22:40:56.885Z,87.70
2018-06-12T22:43:31.524Z,86.40
2018-06-12T22:46:05.782Z,84.82
2018-06-12T22:48:40.172Z,87.23
2018-06-12T22:51:14.640Z,87.70
2018-06-12T22:53:48.894Z,87.66
2018-06-12T22:56:23.793Z,86.72
2018-06-12T22:58:58.058Z,87.37
2018-06-12T23:01:33.090Z,88.58
2018-06-12T23:04:07.307Z,88.84
2018-06-12T23:06:41.904Z,87.78
2018-06-12T23:09:16.460Z,87.97
2018-06-12T23:11:51.285Z,89.26
2018-06-12T23:14:26.330Z,89.69
2018-06-12T23:17:00.649Z,88.64
2018-06-12T23:21:47.096Z,90.60
2018-06-12T23:24:21.221Z,90.35
2018-06-12T23:26:55.371Z,89.88
2018-06-12T23:29:29.449Z,90.27
2018-06-12T23:32:04.223Z,90.13
2018-06-12T23:34:38.347Z,90.28
2018-06-12T23:37:12.587Z,89.74
2018-06-12T23:39:47.457Z,90.69
2018-06-12T23:42:21.907Z,91.42
2018-06-12T23:44:56.401Z,92.13
2018-06-12T23:47:31.497Z,92.24
2018-06-12T23:50:05.861Z,91.90
2018-06-12T23:52:40.200Z,91.61
2018-06-12T23:55:14.790Z,91.68
2018-06-12T23:57:49.185Z,90.52
